createdAt,value
2019-05-11T00:01:23.078Z,6.93
2019-05-11T00:05:24.126Z,9.30
2019-05-11T00:09:25.013Z,9.10
2019-05-11T00:13:25.924Z,8.50
2019-05-11T00:17:27.294Z,8.80
2019-05-11T00:21:29.590Z,9.80
2019-05-11T00:25:31.714Z,10.07
2019-05-11T00:29:32.855Z,11.80
2019-05-11T00:33:33.873Z,12.30
2019-05-11T00:37:34.832Z,12.50
2019-05-11T00:41:35.796Z,14.43
2019-05-11T00:45:36.687Z,15.53
2019-05-11T00:49:37.593Z,15.50
2019-05-11T00:53:38.486Z,14.80
2019-05-11T00:57:39.361Z,11.40
2019-05-11T01:01:40.312Z,11.70
2019-05-11T01:05:41.393Z,14.03
2019-05-11T01:09:42.277Z,15.17
2019-05-11T01:13:43.211Z,15.47
2019-05-11T01:17:44.107Z,12.27
2019-05-11T01:21:45.092Z,11.13
2019-05-11T01:25:46.090Z,12.47
2019-05-11T01:29:46.942Z,13.43
2019-05-11T01:33:47.846Z,17.13
2019-05-11T01:37:48.782Z,16.37
2019-05-11T01:41:49.683Z,16.93
2019-05-11T01:45:50.640Z,16.87
2019-05-11T01:49:51.530Z,18.57
2019-05-11T01:53:52.615Z,20.73
2019-05-11T01:57:53.500Z,22.80
2019-05-11T02:01:54.373Z,23.83
2019-05-11T02:05:55.264Z,23.53
2019-05-11T02:09:56.233Z,20.07
2019-05-11T02:13:57.141Z,22.07
2019-05-11T02:17:58.131Z,22.53
2019-05-11T02:21:59.001Z,19.50
2019-05-11T02:25:59.870Z,20.53
2019-05-11T02:30:00.792Z,25.17
2019-05-11T02:34:01.860Z,25.53
2019-05-11T02:38:02.834Z,25.80
2019-05-11T02:42:03.707Z,28.57
2019-05-11T02:46:04.778Z,29.63
2019-05-11T02:50:06.125Z,30.50
2019-05-11T02:54:07.440Z,32.13
2019-05-11T02:58:08.396Z,37.73
2019-05-11T03:02:09.293Z,42.40
2019-05-11T03:06:10.261Z,33.87
2019-05-11T03:10:11.678Z,27.87
2019-05-11T03:14:12.547Z,25.17
2019-05-11T03:18:13.521Z,24.37
2019-05-11T03:22:14.438Z,25.20
2019-05-11T03:26:15.384Z,28.20
2019-05-11T03:30:16.574Z,33.87
2019-05-11T03:34:17.421Z,32.90
2019-05-11T03:38:18.482Z,32.03
2019-05-11T03:42:19.356Z,31.73
2019-05-11T03:46:20.258Z,32.53
2019-05-11T03:50:21.220Z,28.80
2019-05-11T03:54:22.084Z,29.50
2019-05-11T03:58:26.306Z,27.77
2019-05-11T04:02:25.881Z,26.60
2019-05-11T04:06:26.964Z,26.37
2019-05-11T04:10:27.843Z,25.47
2019-05-11T04:14:28.748Z,25.47
2019-05-11T04:18:29.727Z,24.73
2019-05-11T04:22:30.692Z,24.50
2019-05-11T04:26:31.570Z,26.27
2019-05-11T04:30:32.421Z,25.60
2019-05-11T04:34:33.302Z,26.47
2019-05-11T04:38:34.281Z,24.73
2019-05-11T04:42:53.289Z,26.50
2019-05-11T04:46:38.072Z,25.03
2019-05-11T04:50:39.213Z,23.53
2019-05-11T04:54:40.096Z,24.53
2019-05-11T04:58:41.060Z,22.87
2019-05-11T05:02:41.976Z,22.47
2019-05-11T05:06:42.834Z,20.40
2019-05-11T05:10:43.737Z,19.67
2019-05-11T05:14:44.631Z,18.13
2019-05-11T05:18:45.612Z,18.40
2019-05-11T05:22:46.572Z,18.00
2019-05-11T05:26:47.434Z,19.43
2019-05-11T05:30:48.309Z,18.33
2019-05-11T05:34:49.310Z,18.40
2019-05-11T05:38:50.180Z,19.10
2019-05-11T05:42:51.106Z,18.90
2019-05-11T05:46:52.357Z,16.10
2019-05-11T05:50:53.253Z,18.50
2019-05-11T05:54:54.353Z,16.97
2019-05-11T05:58:55.520Z,15.73
2019-05-11T06:02:56.505Z,18.03
2019-05-11T06:06:57.392Z,17.67
2019-05-11T06:10:58.446Z,18.00
2019-05-11T06:14:59.330Z,18.47
2019-05-11T06:19:00.204Z,19.20
2019-05-11T06:23:01.091Z,19.47
2019-05-11T06:27:02.005Z,18.63
2019-05-11T06:31:03.023Z,17.60
2019-05-11T06:35:06.266Z,18.67
2019-05-11T06:39:07.669Z,19.33
2019-05-11T06:43:08.564Z,19.40
2019-05-11T06:47:09.603Z,21.17
2019-05-11T06:51:10.468Z,19.83
2019-05-11T06:55:11.656Z,22.37
2019-05-11T06:59:12.633Z,21.93
2019-05-11T07:03:13.624Z,23.97
2019-05-11T07:07:14.540Z,20.57
2019-05-11T07:11:15.515Z,21.97
2019-05-11T07:15:16.598Z,19.10
2019-05-11T07:19:17.611Z,16.67
2019-05-11T07:23:18.699Z,15.87
2019-05-11T07:27:19.610Z,15.03
2019-05-11T07:31:23.897Z,13.67
2019-05-11T07:35:24.850Z,16.57
2019-05-11T07:39:27.915Z,17.30
2019-05-11T07:43:28.936Z,15.20
2019-05-11T07:47:29.803Z,15.20
2019-05-11T07:51:30.667Z,14.50
2019-05-11T07:55:31.570Z,14.33
2019-05-11T07:59:32.465Z,14.00
2019-05-11T08:03:33.349Z,13.83
2019-05-11T08:07:34.232Z,13.80
2019-05-11T08:11:35.146Z,13.03
2019-05-11T08:15:38.276Z,13.20
2019-05-11T08:19:38.899Z,13.30
2019-05-11T08:23:39.778Z,12.67
2019-05-11T08:27:40.690Z,10.53
2019-05-11T08:31:41.572Z,11.77
2019-05-11T08:35:42.667Z,14.37
2019-05-11T08:39:43.658Z,12.73
2019-05-11T08:43:44.524Z,12.80
2019-05-11T08:47:45.424Z,12.13
2019-05-11T08:51:47.829Z,10.90
2019-05-11T08:55:49.003Z,11.00
2019-05-11T08:59:49.968Z,10.97
2019-05-11T09:03:51.002Z,12.50
2019-05-11T09:07:52.092Z,11.33
2019-05-11T09:11:53.094Z,13.00
2019-05-11T09:15:54.095Z,10.60
2019-05-11T09:19:55.056Z,10.70
2019-05-11T09:23:57.871Z,10.27
2019-05-11T09:27:58.931Z,11.67
2019-05-11T09:31:59.949Z,10.50
2019-05-11T09:36:00.822Z,9.20
2019-05-11T09:40:02.244Z,10.13
2019-05-11T09:44:03.357Z,7.80
2019-05-11T09:48:04.497Z,8.90
2019-05-11T09:52:07.723Z,8.13
2019-05-11T09:56:08.614Z,7.57
2019-05-11T10:00:11.199Z,6.23
2019-05-11T10:04:12.138Z,5.90
2019-05-11T10:08:13.010Z,6.03
2019-05-11T10:12:14.014Z,6.77
2019-05-11T10:16:15.012Z,5.70
2019-05-11T10:20:18.164Z,5.27
2019-05-11T10:24:18.903Z,4.30
2019-05-11T10:28:19.871Z,6.03
2019-05-11T10:32:21.107Z,4.27
2019-05-11T10:36:22.187Z,3.77
2019-05-11T10:40:25.114Z,3.83
2019-05-11T10:44:28.073Z,5.83
2019-05-11T10:48:28.977Z,4.77
2019-05-11T10:52:30.299Z,4.53
2019-05-11T10:56:31.227Z,3.97
2019-05-11T11:00:32.298Z,5.03
2019-05-11T11:04:33.372Z,5.00
2019-05-11T11:08:34.537Z,5.20
2019-05-11T11:12:38.306Z,4.87
2019-05-11T11:16:42.690Z,5.83
2019-05-11T11:20:41.913Z,5.40
2019-05-11T11:24:42.895Z,5.77
2019-05-11T11:28:43.980Z,5.53
2019-05-11T11:32:45.355Z,5.03
2019-05-11T11:36:48.167Z,4.63
2019-05-11T11:40:49.158Z,4.93
2019-05-11T11:44:50.573Z,4.37
2019-05-11T11:48:51.614Z,4.80
2019-05-11T11:52:52.513Z,4.47
2019-05-11T11:56:53.570Z,4.83
2019-05-11T12:00:54.568Z,5.20
2019-05-11T12:04:57.637Z,6.13
2019-05-11T12:08:58.624Z,5.10
2019-05-11T12:12:59.613Z,5.70
2019-05-11T12:17:06.949Z,5.20
2019-05-11T12:21:08.059Z,5.47
2019-05-11T12:25:09.511Z,6.03
2019-05-11T12:29:10.402Z,4.57
2019-05-11T12:33:11.401Z,5.80
2019-05-11T12:37:12.358Z,4.83
2019-05-11T12:41:13.511Z,4.73
2019-05-11T12:45:14.786Z,3.93
2019-05-11T12:49:18.458Z,4.67
2019-05-11T12:53:18.778Z,4.00
2019-05-11T12:57:19.728Z,4.00
2019-05-11T13:01:20.743Z,3.90
2019-05-11T13:05:21.831Z,4.37
2019-05-11T13:09:22.977Z,3.73
2019-05-11T13:13:23.953Z,10.40
2019-05-11T13:17:34.905Z,5.60
2019-05-11T13:21:28.658Z,5.37
2019-05-11T13:25:29.753Z,4.90
2019-05-11T13:29:30.750Z,5.23
2019-05-11T13:33:31.629Z,7.43
2019-05-11T13:37:32.636Z,4.80
2019-05-11T13:41:33.544Z,4.40
2019-05-11T13:45:34.436Z,4.43
2019-05-11T13:49:37.638Z,5.13
2019-05-11T13:53:38.491Z,4.40
2019-05-11T13:57:40.307Z,4.37
2019-05-11T14:01:41.340Z,3.93
2019-05-11T14:05:42.356Z,4.23
2019-05-11T14:09:43.455Z,4.07
2019-05-11T14:13:44.340Z,5.20
2019-05-11T14:17:45.227Z,6.57
2019-05-11T14:21:48.793Z,5.87
2019-05-11T14:25:49.045Z,7.00
2019-05-11T14:29:50.289Z,8.87
2019-05-11T14:33:51.297Z,9.83
2019-05-11T14:37:52.300Z,9.53
2019-05-11T14:41:53.418Z,11.33
2019-05-11T14:45:54.517Z,12.33
2019-05-11T14:49:57.845Z,13.57
2019-05-11T14:53:59.475Z,14.30
2019-05-11T14:58:00.571Z,14.57
2019-05-11T15:02:03.310Z,13.03
2019-05-11T15:06:04.298Z,14.03
2019-05-11T15:10:08.042Z,14.93
2019-05-11T15:14:09.385Z,14.00
2019-05-11T15:18:10.372Z,12.77
2019-05-11T15:22:11.545Z,12.37
2019-05-11T15:26:12.453Z,13.47
2019-05-11T15:30:14.511Z,11.07
2019-05-11T15:34:15.543Z,10.80
2019-05-11T15:38:17.910Z,11.43
2019-05-11T15:42:20.025Z,10.83
2019-05-11T15:46:21.207Z,10.67
2019-05-11T15:50:22.326Z,10.37
2019-05-11T15:54:23.419Z,11.27
2019-05-11T15:58:24.434Z,12.43
2019-05-11T16:02:25.641Z,11.97
2019-05-11T16:06:28.353Z,14.20
2019-05-11T16:10:29.455Z,10.67
2019-05-11T16:14:30.444Z,12.60
2019-05-11T16:18:31.600Z,12.07
2019-05-11T16:22:32.495Z,12.23
2019-05-11T16:26:33.485Z,12.00
2019-05-11T16:30:34.471Z,11.43
2019-05-11T16:34:38.047Z,11.30
2019-05-11T16:38:38.614Z,12.37
2019-05-11T16:42:39.516Z,12.57
2019-05-11T16:46:40.393Z,13.27
2019-05-11T16:50:41.357Z,13.97
2019-05-11T16:54:42.374Z,14.17
2019-05-11T16:58:43.448Z,13.37
2019-05-11T17:02:44.374Z,12.03
2019-05-11T17:06:45.207Z,10.73
2019-05-11T17:10:59.065Z,9.37
2019-05-11T17:14:59.671Z,9.27
2019-05-11T17:19:00.670Z,7.63
2019-05-11T17:23:01.705Z,7.43
2019-05-11T17:27:02.755Z,7.17
2019-05-11T17:31:03.816Z,6.23
2019-05-11T17:35:08.286Z,7.53
2019-05-11T17:39:09.088Z,6.73
2019-05-11T17:43:10.074Z,7.60
2019-05-11T17:47:11.254Z,6.97
2019-05-11T17:51:21.085Z,7.50
2019-05-11T17:55:15.186Z,7.73
2019-05-11T17:59:16.121Z,8.10
2019-05-11T18:03:17.200Z,8.13
2019-05-11T18:07:27.178Z,8.90
2019-05-11T18:11:21.220Z,8.03
2019-05-11T18:15:22.111Z,8.63
2019-05-11T18:19:22.980Z,8.63
2019-05-11T18:23:23.963Z,8.53
2019-05-11T18:27:24.854Z,9.47
2019-05-11T18:31:25.888Z,9.13
2019-05-11T18:35:27.865Z,10.13
2019-05-11T18:39:29.075Z,9.87
2019-05-11T18:43:30.357Z,10.83
2019-05-11T18:47:31.265Z,11.80
2019-05-11T18:51:32.188Z,10.93
2019-05-11T18:55:33.600Z,11.07
2019-05-11T18:59:34.673Z,15.17
2019-05-11T19:03:35.525Z,14.17
2019-05-11T19:07:38.772Z,13.87
2019-05-11T19:11:42.651Z,16.90
2019-05-11T19:15:42.802Z,12.83
2019-05-11T19:19:43.913Z,20.43
2019-05-11T19:23:44.839Z,22.50
2019-05-11T19:27:50.179Z,21.00
2019-05-11T19:31:48.832Z,18.37
2019-05-11T19:35:49.809Z,31.43
2019-05-11T19:39:50.907Z,16.73
2019-05-11T19:43:52.069Z,17.67
2019-05-11T19:47:53.052Z,17.50
2019-05-11T19:51:53.938Z,20.20
2019-05-11T19:55:55.018Z,18.70
2019-05-11T19:59:58.244Z,20.50
2019-05-11T20:03:58.720Z,22.10
2019-05-11T20:07:59.774Z,22.93
2019-05-11T20:12:01.035Z,27.57
2019-05-11T20:16:02.325Z,27.90
2019-05-11T20:20:08.921Z,23.63
2019-05-11T20:24:09.524Z,26.77
2019-05-11T20:28:10.397Z,20.20
2019-05-11T20:32:11.678Z,18.50
2019-05-11T20:36:12.850Z,18.90
2019-05-11T20:40:14.028Z,24.37
2019-05-11T20:44:14.904Z,21.87
2019-05-11T20:48:18.325Z,21.77
2019-05-11T20:52:18.814Z,22.67
2019-05-11T20:56:19.898Z,18.50
2019-05-11T21:00:21.593Z,20.13
2019-05-11T21:04:22.498Z,22.90
2019-05-11T21:08:23.595Z,20.20
2019-05-11T21:12:24.504Z,18.67
2019-05-11T21:16:25.393Z,19.13
2019-05-11T21:20:28.522Z,22.40
2019-05-11T21:24:29.102Z,21.93
2019-05-11T21:28:30.690Z,21.67
2019-05-11T21:32:31.825Z,22.17
2019-05-11T21:36:32.679Z,23.27
2019-05-11T21:40:33.589Z,25.60
2019-05-11T21:44:34.488Z,24.27
2019-05-11T21:48:35.401Z,23.27
2019-05-11T21:52:38.429Z,26.23
2019-05-11T21:56:40.929Z,36.23
2019-05-11T22:00:43.278Z,24.50
2019-05-11T22:04:44.253Z,26.50
2019-05-11T22:08:48.288Z,27.33
2019-05-11T22:12:49.264Z,29.03
2019-05-11T22:16:50.151Z,27.23
2019-05-11T22:20:51.043Z,28.37
2019-05-11T22:24:52.069Z,28.37
2019-05-11T22:28:52.943Z,34.00
2019-05-11T22:32:53.843Z,29.97
2019-05-11T22:36:54.739Z,45.80
2019-05-11T22:40:58.128Z,30.23
2019-05-11T22:44:58.527Z,32.23
2019-05-11T22:48:59.491Z,51.43
2019-05-11T22:53:00.372Z,30.37
2019-05-11T22:57:01.272Z,32.77
2019-05-11T23:01:02.510Z,30.20
2019-05-11T23:05:08.179Z,30.70
2019-05-11T23:09:08.700Z,30.00
2019-05-11T23:13:11.493Z,30.80
2019-05-11T23:17:12.475Z,29.47
2019-05-11T23:21:13.407Z,28.53
2019-05-11T23:25:14.727Z,29.60
2019-05-11T23:29:15.930Z,29.07
2019-05-11T23:33:18.439Z,26.27
2019-05-11T23:37:19.701Z,25.60
2019-05-11T23:41:24.594Z,29.27
2019-05-11T23:45:23.469Z,29.40
2019-05-11T23:49:24.337Z,29.83
2019-05-11T23:53:25.363Z,25.37
2019-05-11T23:57:26.331Z,23.93
